createdAt,value
2022-12-22T00:02:09.992Z,8.50
2022-12-22T00:05:31.742Z,8.50
2022-12-22T00:08:53.327Z,8.60
2022-12-22T00:12:15.395Z,8.70
2022-12-22T00:15:38.418Z,8.70
2022-12-22T00:19:00.040Z,8.80
2022-12-22T00:22:22.348Z,8.80
2022-12-22T00:25:44.032Z,8.90
2022-12-22T00:29:05.801Z,9.00
2022-12-22T00:32:32.390Z,9.10
2022-12-22T00:35:54.068Z,9.10
2022-12-22T00:39:15.672Z,9.10
2022-12-22T00:42:37.355Z,9.20
2022-12-22T00:45:59.473Z,9.20
2022-12-22T00:49:23.212Z,9.30
2022-12-22T00:52:44.923Z,9.40
2022-12-22T00:56:07.916Z,9.50
2022-12-22T00:59:29.765Z,9.60
2022-12-22T01:02:51.535Z,9.60
2022-12-22T01:06:14.739Z,9.50
2022-12-22T01:09:36.446Z,9.50
2022-12-22T01:12:58.072Z,9.50
2022-12-22T01:16:19.755Z,9.50
2022-12-22T01:19:41.561Z,9.50
2022-12-22T01:23:08.549Z,9.50
2022-12-22T01:26:30.211Z,9.50
2022-12-22T01:29:51.805Z,9.50
2022-12-22T01:33:13.624Z,9.50
2022-12-22T01:36:35.296Z,9.60
2022-12-22T01:39:58.269Z,9.60
2022-12-22T01:43:21.403Z,9.50
2022-12-22T01:46:43.858Z,9.50
2022-12-22T01:50:06.140Z,9.50
2022-12-22T01:53:28.459Z,9.40
2022-12-22T01:56:51.431Z,9.40
2022-12-22T02:00:13.399Z,9.40
2022-12-22T02:03:35.118Z,9.40
2022-12-22T02:07:01.996Z,9.40
2022-12-22T02:10:30.845Z,9.50
2022-12-22T02:14:04.435Z,9.50
2022-12-22T02:17:27.997Z,9.60
2022-12-22T02:20:50.563Z,9.50
2022-12-22T02:24:18.422Z,9.50
2022-12-22T02:27:42.187Z,9.50
2022-12-22T02:31:05.695Z,9.50
2022-12-22T02:34:27.276Z,9.50
2022-12-22T02:37:51.266Z,9.50
2022-12-22T02:41:16.003Z,9.40
2022-12-22T02:44:42.388Z,9.50
2022-12-22T02:48:05.398Z,9.50
2022-12-22T02:51:28.994Z,9.60
2022-12-22T02:54:50.971Z,9.40
2022-12-22T02:58:13.009Z,9.40
2022-12-22T03:01:36.129Z,9.40
2022-12-22T03:04:57.769Z,9.30
2022-12-22T03:08:19.332Z,9.10
2022-12-22T03:11:40.976Z,9.00
2022-12-22T03:15:02.526Z,9.00
2022-12-22T03:18:25.391Z,9.00
2022-12-22T03:21:46.943Z,9.10
2022-12-22T03:25:08.657Z,9.20
2022-12-22T03:28:30.219Z,9.30
2022-12-22T03:31:51.811Z,9.20
2022-12-22T03:35:14.857Z,9.20
2022-12-22T03:38:36.444Z,9.10
2022-12-22T03:41:58.082Z,9.10
2022-12-22T03:45:19.639Z,9.20
2022-12-22T03:48:41.277Z,9.10
2022-12-22T03:52:04.287Z,9.10
2022-12-22T03:55:25.853Z,9.00
2022-12-22T03:58:47.415Z,9.10
2022-12-22T04:02:09.002Z,9.20
2022-12-22T04:05:30.644Z,9.20
2022-12-22T04:08:53.515Z,9.20
2022-12-22T04:12:15.067Z,9.20
2022-12-22T04:15:36.606Z,9.30
2022-12-22T04:18:58.433Z,9.40
2022-12-22T04:22:19.984Z,9.50
2022-12-22T04:25:42.885Z,9.60
2022-12-22T04:29:04.468Z,9.70
2022-12-22T04:32:26.041Z,9.70
2022-12-22T04:35:47.639Z,9.80
2022-12-22T04:39:09.198Z,9.80
2022-12-22T04:42:34.248Z,9.90
2022-12-22T04:45:56.255Z,9.90
2022-12-22T04:49:17.809Z,9.90
2022-12-22T04:52:39.378Z,9.90
2022-12-22T04:56:03.912Z,9.90
2022-12-22T04:59:26.870Z,9.90
2022-12-22T05:02:48.493Z,9.80
2022-12-22T05:06:10.400Z,9.80
2022-12-22T05:09:31.937Z,9.80
2022-12-22T05:12:53.479Z,9.80
2022-12-22T05:16:17.140Z,9.80
2022-12-22T05:19:38.728Z,9.70
2022-12-22T05:23:00.281Z,9.70
2022-12-22T05:26:21.812Z,9.60
2022-12-22T05:29:43.369Z,9.60
2022-12-22T05:33:06.272Z,9.60
2022-12-22T05:36:27.802Z,9.60
2022-12-22T05:39:49.327Z,9.50
2022-12-22T05:43:10.876Z,9.40
2022-12-22T05:46:32.479Z,9.30
2022-12-22T05:49:55.501Z,9.20
2022-12-22T05:53:17.044Z,9.10
2022-12-22T05:56:38.588Z,9.20
2022-12-22T06:00:00.245Z,9.30
2022-12-22T06:03:21.829Z,9.40
2022-12-22T06:06:44.787Z,9.50
2022-12-22T06:10:12.504Z,9.40
2022-12-22T06:13:34.543Z,9.40
2022-12-22T06:16:56.123Z,9.40
2022-12-22T06:20:17.736Z,9.50
2022-12-22T06:23:40.683Z,9.50
2022-12-22T06:27:02.253Z,9.50
2022-12-22T06:30:30.944Z,9.40
2022-12-22T06:33:54.396Z,9.30
2022-12-22T06:37:15.945Z,9.20
2022-12-22T06:40:38.857Z,9.20
2022-12-22T06:44:00.534Z,9.20
2022-12-22T06:47:22.423Z,9.20
2022-12-22T06:50:44.209Z,9.30
2022-12-22T06:54:05.728Z,9.30
2022-12-22T06:57:28.668Z,9.30
2022-12-22T07:00:50.188Z,9.30
2022-12-22T07:04:11.801Z,9.40
2022-12-22T07:07:33.443Z,9.50
2022-12-22T07:10:54.999Z,9.60
2022-12-22T07:14:17.885Z,9.60
2022-12-22T07:17:39.403Z,9.60
2022-12-22T07:21:02.337Z,9.40
2022-12-22T07:24:23.937Z,9.30
2022-12-22T07:27:45.480Z,9.20
2022-12-22T07:31:09.438Z,9.30
2022-12-22T07:34:31.028Z,9.30
2022-12-22T07:37:52.555Z,9.40
2022-12-22T07:41:14.981Z,9.50
2022-12-22T07:44:36.563Z,9.60
2022-12-22T07:48:00.334Z,9.60
2022-12-22T07:51:21.868Z,9.60
2022-12-22T07:54:43.426Z,9.50
2022-12-22T07:58:04.993Z,9.50
2022-12-22T08:01:26.680Z,9.40
2022-12-22T08:04:49.749Z,9.30
2022-12-22T08:08:11.293Z,9.10
2022-12-22T08:11:32.847Z,9.00
2022-12-22T08:14:54.367Z,9.00
2022-12-22T08:18:15.910Z,9.00
2022-12-22T08:21:38.793Z,9.00
2022-12-22T08:25:00.353Z,9.00
2022-12-22T08:28:22.364Z,9.10
2022-12-22T08:31:44.241Z,9.30
2022-12-22T08:35:06.876Z,9.40
2022-12-22T08:38:30.513Z,9.50
2022-12-22T08:41:52.345Z,9.60
2022-12-22T08:45:14.026Z,9.70
2022-12-22T08:48:35.563Z,9.70
2022-12-22T08:51:57.159Z,9.70
2022-12-22T08:55:20.031Z,9.90
2022-12-22T08:58:41.577Z,10.00
2022-12-22T09:02:03.240Z,10.10
2022-12-22T09:05:24.841Z,10.20
2022-12-22T09:08:46.415Z,10.30
2022-12-22T09:12:09.379Z,10.20
2022-12-22T09:15:30.915Z,10.20
2022-12-22T09:18:52.839Z,10.30
2022-12-22T09:22:14.406Z,10.60
2022-12-22T09:25:35.977Z,10.70
2022-12-22T09:28:58.913Z,10.50
2022-12-22T09:32:20.520Z,10.20
2022-12-22T09:35:42.152Z,9.90
2022-12-22T09:39:11.381Z,9.80
2022-12-22T09:42:34.330Z,9.70
2022-12-22T09:45:57.548Z,9.50
2022-12-22T09:49:19.464Z,9.60
2022-12-22T09:52:43.169Z,9.50
2022-12-22T09:56:05.070Z,9.40
2022-12-22T09:59:27.525Z,9.30
2022-12-22T10:02:57.641Z,9.30
2022-12-22T10:06:21.005Z,9.30
2022-12-22T10:09:51.617Z,9.30
2022-12-22T10:13:16.445Z,9.20
2022-12-22T10:16:38.031Z,9.30
2022-12-22T10:20:22.856Z,9.30
2022-12-22T10:23:45.468Z,9.30
2022-12-22T10:27:07.362Z,9.30
2022-12-22T10:30:30.136Z,9.40
2022-12-22T10:33:52.870Z,9.50
2022-12-22T10:37:15.755Z,9.60
2022-12-22T10:40:42.027Z,9.60
2022-12-22T10:44:05.948Z,9.60
2022-12-22T10:47:27.475Z,9.70
2022-12-22T10:50:49.535Z,9.90
2022-12-22T10:54:24.865Z,10.00
2022-12-22T10:57:46.501Z,10.20
2022-12-22T11:01:10.137Z,10.10
2022-12-22T11:04:31.749Z,10.10
2022-12-22T11:07:54.167Z,10.10
2022-12-22T11:11:23.163Z,10.00
2022-12-22T11:14:50.933Z,10.10
2022-12-22T11:18:19.808Z,10.00
2022-12-22T11:21:45.209Z,10.00
2022-12-22T11:25:21.045Z,10.10
2022-12-22T11:28:49.671Z,10.20
2022-12-22T11:32:17.309Z,10.30
2022-12-22T11:35:44.006Z,10.40
2022-12-22T11:39:07.699Z,10.60
2022-12-22T11:42:41.713Z,10.70
2022-12-22T11:46:13.275Z,10.70
2022-12-22T11:49:40.337Z,10.70
2022-12-22T11:53:08.256Z,10.90
2022-12-22T11:56:33.215Z,10.90
2022-12-22T11:59:59.325Z,10.90
2022-12-22T12:03:36.250Z,11.10
2022-12-22T12:07:03.804Z,11.20
2022-12-22T12:10:26.913Z,11.20
2022-12-22T12:13:53.988Z,11.20
2022-12-22T12:17:19.633Z,11.30
2022-12-22T12:20:45.883Z,11.50
2022-12-22T12:24:18.183Z,11.80
2022-12-22T12:27:47.362Z,12.10
2022-12-22T12:31:12.245Z,12.20
2022-12-22T12:34:35.629Z,12.00
2022-12-22T12:38:01.294Z,11.70
2022-12-22T12:41:24.914Z,11.60
2022-12-22T12:44:46.678Z,11.40
2022-12-22T12:48:27.078Z,11.30
2022-12-22T12:51:48.986Z,11.30
2022-12-22T12:55:31.445Z,11.10
2022-12-22T12:58:54.941Z,11.20
2022-12-22T13:02:30.659Z,11.20
2022-12-22T13:05:53.958Z,11.20
2022-12-22T13:09:49.089Z,11.20
2022-12-22T13:13:02.183Z,11.20
2022-12-22T13:16:28.413Z,11.20
2022-12-22T13:19:51.069Z,11.00
2022-12-22T13:23:14.085Z,10.90
2022-12-22T13:26:36.959Z,10.80
2022-12-22T13:29:59.849Z,10.80
2022-12-22T13:33:23.948Z,10.90
2022-12-22T13:36:46.610Z,11.00
2022-12-22T13:40:14.579Z,11.10
2022-12-22T13:43:36.261Z,11.10
2022-12-22T13:47:03.387Z,11.00
2022-12-22T13:50:25.919Z,11.00
2022-12-22T13:54:07.672Z,10.90
2022-12-22T13:57:30.614Z,10.90
2022-12-22T14:01:00.456Z,10.80
2022-12-22T14:04:23.441Z,10.80
2022-12-22T14:07:57.435Z,10.80
2022-12-22T14:11:19.152Z,10.90
2022-12-22T14:14:41.535Z,10.90
2022-12-22T14:18:03.222Z,10.90
2022-12-22T14:21:27.621Z,10.90
2022-12-22T14:24:50.450Z,10.70
2022-12-22T14:28:17.972Z,10.50
2022-12-22T14:31:50.504Z,10.40
2022-12-22T14:35:27.108Z,10.30
2022-12-22T14:38:50.719Z,10.40
2022-12-22T14:42:13.583Z,10.30
2022-12-22T14:45:35.183Z,10.30
2022-12-22T14:48:58.052Z,10.20
2022-12-22T14:52:24.954Z,10.10
2022-12-22T14:55:49.975Z,10.00
2022-12-22T14:59:21.657Z,10.00
2022-12-22T15:02:49.253Z,9.90
2022-12-22T15:06:24.477Z,9.80
2022-12-22T15:10:14.397Z,9.70
2022-12-22T15:13:29.743Z,9.70
2022-12-22T15:16:54.741Z,9.70
2022-12-22T15:20:18.212Z,9.70
2022-12-22T15:23:39.783Z,9.60
2022-12-22T15:27:01.361Z,9.60
2022-12-22T15:30:29.550Z,9.60
2022-12-22T15:33:51.248Z,9.50
2022-12-22T15:37:13.029Z,9.50
2022-12-22T15:40:34.660Z,9.40
2022-12-22T15:43:58.332Z,9.50
2022-12-22T15:47:21.943Z,9.40
2022-12-22T15:50:44.000Z,9.40
2022-12-22T15:54:07.261Z,9.40
2022-12-22T15:57:29.665Z,9.40
2022-12-22T16:00:51.224Z,9.40
2022-12-22T16:04:15.475Z,9.50
2022-12-22T16:07:37.511Z,9.60
2022-12-22T16:10:59.372Z,9.60
2022-12-22T16:14:21.762Z,9.60
2022-12-22T16:17:43.313Z,9.60
2022-12-22T16:21:07.945Z,9.60
2022-12-22T16:24:30.973Z,9.50
2022-12-22T16:27:52.807Z,9.50
2022-12-22T16:31:18.761Z,9.50
2022-12-22T16:34:40.398Z,9.50
2022-12-22T16:38:03.341Z,9.50
2022-12-22T16:41:25.425Z,9.50
2022-12-22T16:44:47.271Z,9.40
2022-12-22T16:48:12.345Z,9.40
2022-12-22T16:51:34.373Z,9.40
2022-12-22T16:54:57.465Z,9.40
2022-12-22T16:58:19.123Z,9.30
2022-12-22T17:01:42.236Z,9.30
2022-12-22T17:05:04.321Z,9.40
2022-12-22T17:08:28.163Z,9.50
2022-12-22T17:11:52.865Z,9.60
2022-12-22T17:15:16.935Z,9.60
2022-12-22T17:18:38.496Z,9.60
2022-12-22T17:22:04.044Z,9.70
2022-12-22T17:25:27.118Z,9.70
2022-12-22T17:28:50.393Z,9.70
2022-12-22T17:32:12.996Z,9.60
2022-12-22T17:35:35.593Z,9.60
2022-12-22T17:38:57.651Z,9.60
2022-12-22T17:42:20.220Z,9.60
2022-12-22T17:45:43.572Z,9.70
2022-12-22T17:49:05.120Z,9.70
2022-12-22T17:52:26.677Z,9.70
2022-12-22T17:59:30.180Z,9.50
2022-12-22T18:02:53.412Z,9.40
2022-12-22T18:06:18.331Z,9.30
2022-12-22T18:09:40.131Z,9.20
2022-12-22T18:13:01.772Z,9.20
2022-12-22T18:16:23.413Z,9.10
2022-12-22T18:19:46.374Z,9.00
2022-12-22T18:23:12.059Z,8.90
2022-12-22T18:26:33.618Z,8.90
2022-12-22T18:29:55.216Z,9.00
2022-12-22T18:33:16.778Z,9.00
2022-12-22T18:36:39.858Z,9.10
2022-12-22T18:40:01.534Z,9.20
2022-12-22T18:43:23.515Z,9.30
2022-12-22T18:46:45.278Z,9.40
2022-12-22T18:50:13.180Z,9.40
2022-12-22T18:53:36.194Z,9.40
2022-12-22T18:56:57.790Z,9.40
2022-12-22T19:00:20.726Z,9.40
2022-12-22T19:03:42.438Z,9.40
2022-12-22T19:07:04.021Z,9.30
2022-12-22T19:10:29.304Z,9.30
2022-12-22T19:13:51.622Z,9.20
2022-12-22T19:17:14.318Z,9.20
2022-12-22T19:20:35.899Z,9.30
2022-12-22T19:23:57.444Z,9.30
2022-12-22T19:27:23.189Z,9.40
2022-12-22T19:30:44.783Z,9.40
2022-12-22T19:34:07.233Z,9.50
2022-12-22T19:37:28.818Z,9.50
2022-12-22T19:40:52.141Z,9.50
2022-12-22T19:44:18.254Z,9.50
2022-12-22T19:47:39.816Z,9.50
2022-12-22T19:51:01.373Z,9.50
2022-12-22T19:54:23.122Z,9.50
2022-12-22T19:57:45.892Z,9.40
2022-12-22T20:01:10.763Z,9.40
2022-12-22T20:04:32.333Z,9.40
2022-12-22T20:07:54.823Z,9.40
2022-12-22T20:11:17.684Z,9.40
2022-12-22T20:14:39.307Z,9.40
2022-12-22T20:18:03.997Z,9.50
2022-12-22T20:21:27.022Z,9.50
2022-12-22T20:24:49.996Z,9.50
2022-12-22T20:28:13.947Z,9.50
2022-12-22T20:31:35.617Z,9.50
2022-12-22T20:34:58.503Z,9.50
2022-12-22T20:38:21.158Z,9.40
2022-12-22T20:41:47.010Z,9.40
2022-12-22T20:45:12.233Z,9.40
2022-12-22T20:48:34.700Z,9.40
2022-12-22T20:51:57.635Z,9.30
2022-12-22T20:55:20.381Z,9.30
2022-12-22T20:58:41.950Z,9.30
2022-12-22T21:02:03.815Z,9.30
2022-12-22T21:05:25.577Z,9.30
2022-12-22T21:08:48.559Z,9.30
2022-12-22T21:12:10.381Z,9.30
2022-12-22T21:15:31.939Z,9.30
2022-12-22T21:18:53.776Z,9.30
2022-12-22T21:22:15.561Z,9.30
2022-12-22T21:25:43.166Z,9.30
2022-12-22T21:29:12.760Z,9.20
2022-12-22T21:32:34.666Z,9.20
2022-12-22T21:35:58.448Z,9.20
2022-12-22T21:39:26.583Z,9.20
2022-12-22T21:42:49.907Z,9.10
2022-12-22T21:46:12.110Z,9.10
2022-12-22T21:49:33.908Z,9.10
2022-12-22T21:52:56.198Z,9.10
2022-12-22T21:56:18.649Z,9.00
2022-12-22T21:59:41.599Z,9.00
2022-12-22T22:03:03.526Z,9.00
2022-12-22T22:06:26.116Z,9.00
2022-12-22T22:09:50.429Z,9.00
2022-12-22T22:13:13.961Z,9.00
2022-12-22T22:16:37.291Z,8.90
2022-12-22T22:19:59.336Z,8.90
2022-12-22T22:23:21.460Z,8.80
2022-12-22T22:26:44.807Z,8.80
2022-12-22T22:30:07.655Z,8.80
2022-12-22T22:33:31.362Z,8.80
2022-12-22T22:36:53.512Z,8.80
2022-12-22T22:40:16.595Z,8.80
2022-12-22T22:43:38.402Z,8.80
2022-12-22T22:47:00.984Z,8.80
2022-12-22T22:50:24.736Z,8.80
2022-12-22T22:53:46.948Z,8.80
2022-12-22T22:57:09.272Z,8.80
2022-12-22T23:00:30.832Z,8.80
2022-12-22T23:03:52.979Z,8.80
2022-12-22T23:07:18.481Z,8.80
2022-12-22T23:10:46.923Z,8.80
2022-12-22T23:14:10.155Z,8.80
2022-12-22T23:17:32.826Z,8.80
2022-12-22T23:20:57.176Z,8.80
2022-12-22T23:24:20.831Z,8.90
2022-12-22T23:27:42.448Z,9.00
2022-12-22T23:31:04.140Z,9.00
2022-12-22T23:34:25.723Z,9.00
2022-12-22T23:37:47.299Z,9.00
2022-12-22T23:41:12.052Z,9.10
2022-12-22T23:44:33.642Z,9.10
2022-12-22T23:47:55.178Z,9.20
2022-12-22T23:51:16.896Z,9.20
2022-12-22T23:54:38.436Z,9.20
2022-12-22T23:58:01.297Z,9.20
